Time;durP1;ratioP1;P1;durP2;ratioP2;P2;SDS_P1;SDS_P2;PMS_P1;PMS_P2;Temp;Humidity;BMP_temperature;BMP_pressure;BME280_temperature;BME280_humidity;BME280_pressure;Samples;Min_cycle;Max_cycle;Signal;HPM_P1;HPM_P2
2022/07/06 00:00:58;;;;;;;7.63;4.55;;;;;;;27.44;100.00;100771.44;4959850;28;20114;-74
2022/07/06 00:03:44;;;;;;;6.20;4.60;;;;;;;27.66;100.00;100786.59;4960254;28;20122;-75
2022/07/06 00:06:29;;;;;;;9.77;4.35;;;;;;;27.37;100.00;100797.22;4959020;28;20102;-74
2022/07/06 00:09:15;;;;;;;13.63;4.50;;;;;;;27.21;100.00;100812.94;4960347;28;20130;-73
2022/07/06 00:12:01;;;;;;;10.98;4.13;;;;;;;26.52;100.00;100805.31;4958979;29;20039;-74
2022/07/06 00:14:47;;;;;;;8.32;4.57;;;;;;;26.92;100.00;100801.03;4959883;28;20031;-76
2022/07/06 00:17:33;;;;;;;6.45;4.68;;;;;;;27.10;100.00;100800.38;4959528;28;20342;-74
2022/07/06 00:20:19;;;;;;;7.25;4.50;;;;;;;26.93;100.00;100784.78;4959673;28;20046;-74
2022/07/06 00:23:05;;;;;;;9.50;4.22;;;;;;;27.14;100.00;100792.88;4959246;28;20050;-74
2022/07/06 00:25:51;;;;;;;5.90;4.47;;;;;;;26.82;100.00;100797.44;4959082;29;20031;-76
2022/07/06 00:28:37;;;;;;;8.38;4.40;;;;;;;27.19;100.00;100794.22;4958375;28;20032;-74
2022/07/06 00:31:23;;;;;;;4.68;4.22;;;;;;;26.94;100.00;100797.25;4958487;29;20102;-73
2022/07/06 00:34:08;;;;;;;4.90;4.10;;;;;;;26.96;100.00;100792.59;4959140;28;20041;-75
2022/07/06 00:36:54;;;;;;;5.85;4.18;;;;;;;26.94;100.00;100796.41;4958735;28;20114;-74
2022/07/06 00:39:40;;;;;;;11.23;4.65;;;;;;;26.82;100.00;100792.91;4959887;28;20326;-74
2022/07/06 00:42:26;;;;;;;8.30;4.80;;;;;;;26.57;100.00;100801.25;4958389;29;20027;-73
2022/07/06 00:45:13;;;;;;;6.25;4.70;;;;;;;26.91;100.00;100794.81;4944280;29;20046;-74
2022/07/06 00:47:59;;;;;;;9.13;6.25;;;;;;;26.58;100.00;100796.75;4958906;28;20422;-75
2022/07/06 00:50:45;;;;;;;9.05;6.50;;;;;;;26.38;100.00;100786.75;4958926;28;20473;-73
2022/07/06 00:53:31;;;;;;;8.93;6.63;;;;;;;26.19;100.00;100782.03;4958858;28;20054;-75
2022/07/06 00:56:16;;;;;;;12.48;6.70;;;;;;;26.36;100.00;100786.03;4959439;28;20461;-74
2022/07/06 00:59:03;;;;;;;20.58;8.30;;;;;;;26.02;100.00;100787.03;4958392;29;20031;-73
2022/07/06 01:01:49;;;;;;;17.55;8.43;;;;;;;26.10;100.00;100781.91;4959334;28;20090;-73
2022/07/06 01:04:34;;;;;;;15.77;9.00;;;;;;;26.24;100.00;100787.03;4958629;28;20038;-74
2022/07/06 01:07:20;;;;;;;16.50;9.32;;;;;;;26.43;100.00;100782.72;4958392;29;20110;-74
2022/07/06 01:10:07;;;;;;;15.43;10.07;;;;;;;26.39;100.00;100783.09;4957650;29;20069;-74
2022/07/06 01:12:54;;;;;;;20.60;10.73;;;;;;;26.13;100.00;100773.63;4958496;28;20094;-74
2022/07/06 01:15:40;;;;;;;17.20;10.68;;;;;;;25.69;100.00;100781.66;4957574;29;20105;-73
2022/07/06 01:18:25;;;;;;;17.15;10.77;;;;;;;26.06;100.00;100778.63;4958359;28;20529;-74
2022/07/06 01:21:14;;;;;;;18.35;11.18;;;;;;;25.88;100.00;100785.41;4957620;29;20034;-75
2022/07/06 01:23:59;;;;;;;21.65;10.73;;;;;;;26.17;100.00;100785.81;4956435;29;20381;-75
2022/07/06 01:26:45;;;;;;;19.38;11.35;;;;;;;26.15;100.00;100788.63;4958343;29;20027;-74
2022/07/06 01:29:32;;;;;;;16.67;11.88;;;;;;;25.99;100.00;100785.47;4957736;29;20031;-74
2022/07/06 01:32:17;;;;;;;17.17;11.32;;;;;;;25.84;100.00;100777.75;4957739;28;20027;-74
2022/07/06 01:35:06;;;;;;;14.88;11.65;;;;;;;26.09;100.00;100778.41;4956467;29;20020;-75
2022/07/06 01:37:52;;;;;;;25.02;12.32;;;;;;;25.87;100.00;100780.16;4957575;29;20027;-75
2022/07/06 01:40:38;;;;;;;17.27;11.52;;;;;;;25.83;100.00;100779.56;4956635;28;20035;-73
2022/07/06 01:43:23;;;;;;;17.58;11.65;;;;;;;25.94;100.00;100768.00;4956434;29;20484;-74
2022/07/06 01:46:10;;;;;;;20.13;11.27;;;;;;;26.00;100.00;100770.22;4957201;29;20023;-74
2022/07/06 01:48:56;;;;;;;17.05;12.07;;;;;;;25.81;100.00;100775.31;4957942;28;20450;-74
2022/07/06 01:51:42;;;;;;;21.45;12.18;;;;;;;25.29;100.00;100772.31;4957207;29;20054;-74
2022/07/06 01:54:28;;;;;;;14.30;11.15;;;;;;;25.50;100.00;100773.31;4957031;28;20031;-74
2022/07/06 01:57:14;;;;;;;17.95;11.82;;;;;;;25.82;100.00;100771.63;4956536;29;20023;-75
2022/07/06 02:00:00;;;;;;;16.90;11.05;;;;;;;25.80;100.00;100771.75;4957546;28;20094;-74
2022/07/06 02:02:45;;;;;;;15.63;10.77;;;;;;;25.63;100.00;100761.50;4957392;29;20027;-73
2022/07/06 02:05:31;;;;;;;13.77;11.23;;;;;;;25.62;100.00;100762.50;4956415;29;20023;-73
2022/07/06 02:08:17;;;;;;;17.15;11.10;;;;;;;25.54;100.00;100774.78;4956135;29;20033;-74
2022/07/06 02:11:04;;;;;;;14.85;10.45;;;;;;;25.47;100.00;100770.91;4956847;29;20385;-73
2022/07/06 02:13:50;;;;;;;16.48;10.85;;;;;;;25.01;100.00;100770.88;4956237;29;20445;-74
2022/07/06 02:16:36;;;;;;;19.83;11.18;;;;;;;25.20;100.00;100773.81;4957185;29;20094;-74
2022/07/06 02:19:22;;;;;;;14.85;10.88;;;;;;;25.13;100.00;100774.44;4957342;29;20065;-74
2022/07/06 02:22:08;;;;;;;14.70;11.02;;;;;;;25.22;100.00;100773.72;4955926;29;20479;-74
2022/07/06 02:24:54;;;;;;;15.40;11.40;;;;;;;25.23;100.00;100780.81;4955758;29;20070;-75
2022/07/06 02:27:39;;;;;;;16.83;11.32;;;;;;;25.30;100.00;100782.91;4955658;29;20091;-75
2022/07/06 02:30:25;;;;;;;14.18;10.82;;;;;;;24.98;100.00;100781.81;4955858;29;20031;-75
2022/07/06 02:33:11;;;;;;;13.68;11.25;;;;;;;25.14;100.00;100784.16;4956745;29;20039;-73
2022/07/06 02:35:57;;;;;;;18.25;11.50;;;;;;;25.08;100.00;100774.75;4941919;29;20023;-75
2022/07/06 02:38:43;;;;;;;15.10;12.02;;;;;;;25.11;100.00;100781.75;4957030;29;20058;-74
2022/07/06 02:41:28;;;;;;;14.23;11.15;;;;;;;24.88;100.00;100782.63;4956489;29;20043;-74
2022/07/06 02:44:14;;;;;;;18.58;12.20;;;;;;;25.08;100.00;100790.03;4955624;29;20041;-74
2022/07/06 02:47:00;;;;;;;18.48;12.38;;;;;;;24.80;100.00;100782.34;4956554;29;20024;-75
2022/07/06 02:49:46;;;;;;;15.15;11.90;;;;;;;25.04;100.00;100775.13;4956391;29;20409;-75
2022/07/06 02:52:31;;;;;;;15.52;12.40;;;;;;;25.10;100.00;100780.88;4942517;28;20114;-75
2022/07/06 02:55:17;;;;;;;14.45;12.48;;;;;;;25.13;100.00;100780.66;4955134;29;20102;-74
2022/07/06 02:58:03;;;;;;;16.63;12.23;;;;;;;25.02;100.00;100771.69;4956418;29;20101;-74
2022/07/06 03:00:49;;;;;;;16.00;12.80;;;;;;;25.24;100.00;100779.81;4956758;28;20031;-74
2022/07/06 03:03:34;;;;;;;15.70;11.60;;;;;;;25.07;100.00;100781.09;4955547;29;20037;-74
2022/07/06 03:06:20;;;;;;;15.27;12.13;;;;;;;24.92;100.00;100779.63;4954876;29;20512;-75
2022/07/06 03:09:06;;;;;;;14.10;12.15;;;;;;;25.07;100.00;100782.94;4956416;29;20043;-74
2022/07/06 03:11:52;;;;;;;15.05;12.32;;;;;;;25.13;100.00;100783.34;4956067;29;20055;-74
2022/07/06 03:14:38;;;;;;;14.32;12.15;;;;;;;25.08;100.00;100784.66;4956788;28;20465;-74
2022/07/06 03:17:23;;;;;;;14.38;10.68;;;;;;;25.26;100.00;100784.09;4956166;29;20046;-74
2022/07/06 03:20:09;;;;;;;13.27;11.88;;;;;;;25.03;100.00;100790.34;4955407;29;20031;-75
2022/07/06 03:22:55;;;;;;;14.10;12.00;;;;;;;24.96;100.00;100788.25;4954859;29;20023;-75
2022/07/06 03:25:41;;;;;;;15.10;11.93;;;;;;;25.32;100.00;100788.19;4942799;28;20061;-74
2022/07/06 03:28:27;;;;;;;15.23;12.15;;;;;;;25.34;100.00;100783.53;4942837;28;20122;-74
2022/07/06 03:31:12;;;;;;;18.38;12.40;;;;;;;25.26;100.00;100788.59;4955239;29;20457;-74
2022/07/06 03:33:58;;;;;;;17.35;12.73;;;;;;;25.39;100.00;100781.38;4955214;29;20097;-74
2022/07/06 03:36:44;;;;;;;17.23;13.65;;;;;;;25.29;100.00;100783.03;4955728;29;20027;-74
2022/07/06 03:39:29;;;;;;;20.60;13.57;;;;;;;25.20;100.00;100783.72;4955527;29;20091;-75
2022/07/06 03:42:15;;;;;;;16.05;13.13;;;;;;;25.14;100.00;100793.09;4955063;29;20023;-74
2022/07/06 03:45:01;;;;;;;16.75;13.13;;;;;;;25.12;100.00;100794.19;4954390;29;20042;-74
2022/07/06 03:47:47;;;;;;;16.90;13.18;;;;;;;24.79;100.00;100781.47;4956322;28;20098;-74
2022/07/06 03:50:32;;;;;;;19.52;12.95;;;;;;;25.12;100.00;100778.91;4942366;29;20552;-74
2022/07/06 03:53:18;;;;;;;18.48;13.75;;;;;;;25.36;100.00;100768.19;4942285;28;20118;-75
2022/07/06 03:59:08;;;;;;;18.63;13.35;;;;;;;25.39;100.00;100776.00;4955665;29;20075;-75
2022/07/06 04:01:54;;;;;;;15.00;13.25;;;;;;;25.59;100.00;100769.94;4956484;28;20035;-73
2022/07/06 04:04:40;;;;;;;17.35;13.40;;;;;;;25.38;100.00;100771.59;4957142;28;20023;-74
2022/07/06 04:07:26;;;;;;;15.15;13.55;;;;;;;25.77;100.00;100772.03;4959021;29;20023;-74
2022/07/06 04:10:12;;;;;;;19.15;14.27;;;;;;;25.72;100.00;100776.88;4958260;29;20035;-74
2022/07/06 04:12:57;;;;;;;15.68;12.85;;;;;;;25.77;100.00;100780.06;4959682;28;20070;-75
2022/07/06 04:15:43;;;;;;;19.05;13.77;;;;;;;25.77;100.00;100773.84;4959955;29;20019;-73
2022/07/06 04:18:29;;;;;;;17.02;13.38;;;;;;;25.55;100.00;100781.88;4947011;28;20405;-73
2022/07/06 04:21:15;;;;;;;15.48;12.82;;;;;;;25.65;100.00;100782.84;4960190;28;20069;-73
2022/07/06 04:24:00;;;;;;;15.05;13.23;;;;;;;25.38;100.00;100785.00;4958052;29;20060;-74
2022/07/06 04:26:46;;;;;;;16.45;13.57;;;;;;;25.33;100.00;100789.88;4958930;28;20106;-75
2022/07/06 04:29:32;;;;;;;15.82;13.50;;;;;;;25.63;100.00;100784.81;4944641;29;20035;-74
2022/07/06 04:32:18;;;;;;;18.42;13.15;;;;;;;25.69;100.00;100784.31;4958764;29;20094;-74
2022/07/06 04:35:05;;;;;;;16.92;13.50;;;;;;;25.85;100.00;100784.81;4957382;29;20027;-73
2022/07/06 04:37:51;;;;;;;18.50;13.07;;;;;;;25.49;100.00;100785.91;4958797;29;20027;-73
2022/07/06 04:40:36;;;;;;;16.27;13.05;;;;;;;25.89;100.00;100797.03;4944468;29;20389;-74
2022/07/06 04:43:22;;;;;;;18.02;13.82;;;;;;;26.14;100.00;100791.44;4958115;29;20043;-74
2022/07/06 04:46:08;;;;;;;17.30;15.02;;;;;;;26.01;100.00;100788.03;4958514;29;20034;-74
2022/07/06 04:48:53;;;;;;;21.33;16.08;;;;;;;25.74;100.00;100788.38;4958435;29;20098;-74
2022/07/06 04:51:39;;;;;;;18.17;15.30;;;;;;;26.18;100.00;100784.84;4957644;29;20129;-71
2022/07/06 04:54:25;;;;;;;20.80;17.08;;;;;;;25.69;100.00;100797.75;4957486;29;20035;-75
2022/07/06 04:57:11;;;;;;;20.50;15.82;;;;;;;26.06;100.00;100791.19;4957146;29;20034;-73
2022/07/06 04:59:57;;;;;;;18.75;16.50;;;;;;;26.23;100.00;100794.22;4958205;28;20355;-75
2022/07/06 05:02:43;;;;;;;22.27;16.33;;;;;;;26.15;100.00;100791.31;4966955;29;20457;-75
2022/07/06 05:05:28;;;;;;;20.65;15.32;;;;;;;26.37;100.00;100785.06;4957124;29;20524;-74
2022/07/06 05:08:14;;;;;;;23.83;15.95;;;;;;;26.47;100.00;100786.00;4964112;29;20075;-73
2022/07/06 05:11:00;;;;;;;24.45;16.08;;;;;;;26.23;100.00;100793.38;4949302;28;20428;-74
2022/07/06 05:13:46;;;;;;;20.85;15.93;;;;;;;26.57;100.00;100795.03;4958409;29;20049;-73
2022/07/06 05:16:32;;;;;;;21.55;16.25;;;;;;;26.37;100.00;100803.88;4956395;29;20030;-74
2022/07/06 05:19:18;;;;;;;20.75;15.32;;;;;;;25.85;100.00;100798.25;4956354;29;20098;-74
2022/07/06 05:22:04;;;;;;;20.88;14.75;;;;;;;26.33;100.00;100814.00;4956972;29;20038;-73
2022/07/06 05:24:50;;;;;;;18.27;14.57;;;;;;;26.71;100.00;100818.97;4944036;28;20409;-74
2022/07/06 05:27:36;;;;;;;17.77;14.80;;;;;;;26.80;100.00;100818.22;4944553;28;20039;-74
2022/07/06 05:30:22;;;;;;;18.02;15.77;;;;;;;26.96;100.00;100829.38;4957045;29;20024;-75
2022/07/06 05:33:08;;;;;;;17.13;14.50;;;;;;;26.80;100.00;100823.59;4958360;28;20038;-73
2022/07/06 05:35:54;;;;;;;18.25;13.95;;;;;;;27.00;100.00;100836.22;4957823;29;20520;-74
2022/07/06 05:38:39;;;;;;;16.98;13.55;;;;;;;26.13;100.00;100830.88;4944457;28;20122;-74
2022/07/06 05:41:25;;;;;;;21.50;13.65;;;;;;;26.50;100.00;100826.06;4956803;29;20038;-74
2022/07/06 05:44:11;;;;;;;18.00;13.20;;;;;;;26.51;100.00;100835.84;4957368;29;20023;-74
2022/07/06 05:50:11;;;;;;;17.40;12.63;;;;;;;26.82;100.00;100845.81;4959577;29;20119;-74
2022/07/06 05:50:11;;;;;;;15.88;13.55;;;;;;;26.83;100.00;100837.63;4948599;29;20159;-73
2022/07/06 05:53:00;;;;;;;19.42;13.15;;;;;;;27.22;100.00;100845.13;4963825;29;20067;-73
2022/07/06 05:55:47;;;;;;;20.25;12.77;;;;;;;27.40;100.00;100848.91;4962833;29;20086;-74
2022/07/06 05:58:33;;;;;;;17.10;12.52;;;;;;;27.17;100.00;100854.50;4959105;29;20027;-74
2022/07/06 06:01:18;;;;;;;16.45;12.75;;;;;;;27.22;100.00;100853.19;4961568;29;20338;-74
2022/07/06 06:04:04;;;;;;;17.95;12.50;;;;;;;27.10;100.00;100848.78;4960473;29;20073;-74
2022/07/06 06:06:50;;;;;;;16.08;12.20;;;;;;;27.34;100.00;100848.59;4957907;29;20069;-74
2022/07/06 06:09:35;;;;;;;14.13;12.25;;;;;;;27.25;100.00;100852.06;4959151;29;20445;-74
2022/07/06 06:12:21;;;;;;;15.98;12.15;;;;;;;27.60;100.00;100851.75;4959664;29;20035;-74
2022/07/06 06:15:08;;;;;;;13.77;12.13;;;;;;;27.63;100.00;100857.72;4959524;28;20053;-74
2022/07/06 06:17:54;;;;;;;16.90;11.77;;;;;;;27.64;100.00;100858.59;4944812;28;20453;-75
2022/07/06 06:20:40;;;;;;;14.20;11.45;;;;;;;26.93;100.00;100861.94;4945339;29;20503;-74
2022/07/06 06:23:26;;;;;;;17.17;12.13;;;;;;;26.79;100.00;100856.81;4960074;28;20042;-74
2022/07/06 06:26:11;;;;;;;20.13;13.93;;;;;;;27.72;100.00;100861.47;4956647;28;20068;-75
2022/07/06 06:28:57;;;;;;;17.08;12.88;;;;;;;27.65;100.00;100854.91;4957556;29;20078;-74
2022/07/06 06:31:43;;;;;;;15.68;12.73;;;;;;;27.14;100.00;100852.94;4956697;28;20368;-74
2022/07/06 06:34:29;;;;;;;14.10;11.60;;;;;;;27.88;100.00;100849.25;4956398;29;20046;-75
2022/07/06 06:37:15;;;;;;;20.98;11.57;;;;;;;27.58;100.00;100859.97;4955553;29;20089;-75
2022/07/06 06:40:01;;;;;;;18.45;12.50;;;;;;;27.61;100.00;100857.00;4957145;29;20035;-73
2022/07/06 06:42:47;;;;;;;13.98;12.27;;;;;;;27.79;100.00;100852.72;4956332;29;20031;-74
2022/07/06 06:45:33;;;;;;;23.10;13.40;;;;;;;27.99;100.00;100842.94;4957400;28;20027;-74
2022/07/06 06:48:18;;;;;;;22.40;15.00;;;;;;;28.06;100.00;100852.19;4955316;29;20448;-74
2022/07/06 06:51:04;;;;;;;17.67;11.85;;;;;;;28.15;100.00;100851.38;4957005;29;20055;-74
2022/07/06 06:53:51;;;;;;;13.55;11.52;;;;;;;28.04;100.00;100843.41;4956158;29;20039;-74
2022/07/06 06:56:36;;;;;;;14.68;11.85;;;;;;;28.26;100.00;100841.38;4956813;29;20030;-73
2022/07/06 06:59:24;;;;;;;16.27;11.80;;;;;;;27.48;100.00;100848.25;4956197;28;20106;-74
2022/07/06 07:02:10;;;;;;;15.85;12.30;;;;;;;27.51;100.00;100848.00;4956228;29;20453;-73
2022/07/06 07:04:55;;;;;;;17.80;11.75;;;;;;;28.24;100.00;100845.19;4954888;29;20031;-73
2022/07/06 07:07:41;;;;;;;13.85;12.02;;;;;;;28.45;100.00;100843.31;4955519;29;20035;-74
2022/07/06 07:10:27;;;;;;;13.00;11.45;;;;;;;28.45;100.00;100843.31;4955930;29;20038;-74
2022/07/06 07:13:13;;;;;;;16.40;10.95;;;;;;;28.87;100.00;100848.38;4955714;29;20106;-74
2022/07/06 07:15:58;;;;;;;19.60;15.45;;;;;;;28.24;100.00;100847.91;4956961;28;20072;-73
2022/07/06 07:18:44;;;;;;;16.30;11.63;;;;;;;27.68;100.00;100858.16;4955084;29;20031;-75
2022/07/06 07:21:30;;;;;;;16.20;11.43;;;;;;;27.93;100.00;100857.81;4956620;29;20381;-74
2022/07/06 07:24:16;;;;;;;13.82;10.70;;;;;;;28.85;100.00;100861.13;4955342;29;20027;-74
2022/07/06 07:27:02;;;;;;;15.00;10.57;;;;;;;28.57;100.00;100848.44;4955604;29;20035;-73
2022/07/06 07:29:47;;;;;;;13.98;10.48;;;;;;;28.61;100.00;100854.44;4955372;29;20035;-74
2022/07/06 07:32:33;;;;;;;15.30;10.68;;;;;;;28.82;100.00;100856.03;4942758;28;20049;-75
2022/07/06 07:35:19;;;;;;;14.00;9.98;;;;;;;28.67;100.00;100857.41;4955178;29;20035;-73
2022/07/06 07:38:05;;;;;;;15.45;10.23;;;;;;;29.20;100.00;100861.50;4958030;28;20057;-74
2022/07/06 07:40:53;;;;;;;16.45;9.70;;;;;;;29.65;100.00;100857.22;4959643;29;20086;-74
2022/07/06 07:43:39;;;;;;;16.33;9.73;;;;;;;29.96;100.00;100858.72;4960217;28;20030;-74
2022/07/06 07:46:25;;;;;;;14.40;10.25;;;;;;;29.86;100.00;100857.88;4960438;28;20034;-74
2022/07/06 07:49:10;;;;;;;15.85;9.85;;;;;;;29.86;100.00;100860.59;4958558;29;20028;-74
2022/07/06 07:51:56;;;;;;;12.18;9.65;;;;;;;29.75;100.00;100858.06;4960094;28;20053;-74
2022/07/06 07:54:42;;;;;;;14.60;9.57;;;;;;;29.46;100.00;100849.13;4960749;28;20043;-76
2022/07/06 07:57:28;;;;;;;13.52;9.30;;;;;;;29.88;100.00;100853.19;4960123;29;20094;-75
2022/07/06 08:00:14;;;;;;;12.27;9.05;;;;;;;30.45;100.00;100853.00;4959900;29;20106;-76
2022/07/06 08:03:00;;;;;;;12.63;9.30;;;;;;;31.06;100.00;100854.06;4959959;28;20023;-77
2022/07/06 08:05:47;;;;;;;12.40;9.60;;;;;;;31.43;100.00;100851.22;4960092;28;20042;-75
2022/07/06 08:08:33;;;;;;;16.27;11.57;;;;;;;31.33;100.00;100857.75;4959239;29;20031;-75
2022/07/06 08:11:19;;;;;;;14.98;8.85;;;;;;;30.44;100.00;100845.03;4947376;28;20050;-74
2022/07/06 08:14:05;;;;;;;13.05;8.98;;;;;;;31.55;100.00;100854.53;4959016;29;20373;-76
2022/07/06 08:16:51;;;;;;;13.45;8.52;;;;;;;32.16;100.00;100852.59;4959029;29;20027;-75
2022/07/06 08:19:42;;;;;;;14.38;8.68;;;;;;;32.04;100.00;100854.75;4959555;29;20031;-75
2022/07/06 08:22:29;;;;;;;13.95;11.50;;;;;;;32.47;100.00;100851.09;4959970;28;20034;-76
2022/07/06 08:25:15;;;;;;;11.38;9.20;;;;;;;32.10;100.00;100855.97;4959979;28;20027;-78
2022/07/06 08:28:01;;;;;;;10.40;7.97;;;;;;;31.78;100.00;100875.56;4946278;28;20031;-75
2022/07/06 08:30:47;;;;;;;11.80;8.50;;;;;;;31.72;100.00;100864.47;4958549;29;20134;-76
2022/07/06 08:33:33;;;;;;;9.35;7.80;;;;;;;32.60;99.04;100856.91;4959071;29;20030;-76
2022/07/06 08:36:19;;;;;;;13.52;7.70;;;;;;;32.09;95.43;100863.25;4959343;28;20038;-75
2022/07/06 08:39:05;;;;;;;8.18;7.38;;;;;;;32.30;95.37;100862.88;4958757;29;20110;-74
2022/07/06 08:41:51;;;;;;;12.10;8.13;;;;;;;33.38;90.02;100861.88;4959635;28;20094;-75
2022/07/06 08:44:37;;;;;;;14.18;8.15;;;;;;;33.80;85.54;100865.25;4959563;28;20035;-75
2022/07/06 08:47:26;;;;;;;14.30;7.88;;;;;;;34.07;84.00;100867.63;4959757;28;20031;-75
2022/07/06 08:50:12;;;;;;;9.32;7.30;;;;;;;31.68;93.53;100863.94;4962539;28;20057;-76
2022/07/06 08:52:58;;;;;;;13.00;6.97;;;;;;;32.05;92.57;100863.72;4959754;28;20034;-76
2022/07/06 08:55:44;;;;;;;15.40;7.50;;;;;;;32.68;90.51;100865.06;4958093;29;20465;-75
2022/07/06 08:58:29;;;;;;;9.75;7.28;;;;;;;32.29;95.74;100869.28;4958906;29;20102;-74
2022/07/06 09:01:17;;;;;;;9.82;6.80;;;;;;;32.48;96.35;100861.78;4959964;29;20027;-73
2022/07/06 09:04:07;;;;;;;8.45;6.75;;;;;;;32.17;97.50;100871.41;4960408;28;20054;-76
2022/07/06 09:06:54;;;;;;;10.52;7.15;;;;;;;32.38;97.28;100866.47;4957819;29;20070;-76
2022/07/06 09:09:42;;;;;;;13.65;7.30;;;;;;;31.52;98.71;100860.25;4959618;28;20394;-77
2022/07/06 09:12:28;;;;;;;11.38;7.50;;;;;;;31.96;98.97;100865.53;4959603;29;20039;-75
2022/07/06 09:15:14;;;;;;;13.45;7.22;;;;;;;32.48;95.68;100858.22;4958509;29;20144;-76
2022/07/06 09:18:03;;;;;;;12.48;7.60;;;;;;;32.73;92.99;100865.41;4958419;29;20421;-76
2022/07/06 09:20:49;;;;;;;13.13;7.57;;;;;;;33.23;91.08;100863.53;4959063;28;20035;-74
2022/07/06 09:23:36;;;;;;;11.00;8.60;;;;;;;32.70;92.60;100863.88;4958339;28;20034;-74
2022/07/06 09:26:23;;;;;;;11.18;8.15;;;;;;;32.70;93.88;100869.31;4959258;28;20062;-75
2022/07/06 09:29:10;;;;;;;15.32;9.00;;;;;;;32.64;93.34;100867.28;4958731;29;20023;-73
2022/07/06 09:32:00;;;;;;;11.23;8.57;;;;;;;32.69;91.72;100870.34;4961208;28;20470;-74
2022/07/06 09:34:47;;;;;;;18.95;11.32;;;;;;;31.68;98.76;100872.09;4957574;29;20037;-74
2022/07/06 09:37:32;;;;;;;15.15;9.18;;;;;;;31.55;100.00;100877.06;4957704;29;20480;-74
2022/07/06 09:40:18;;;;;;;14.90;11.15;;;;;;;31.42;100.00;100872.03;4958709;28;20086;-74
2022/07/06 09:43:18;;;;;;;11.63;9.55;;;;;;;32.24;97.20;100871.63;4958338;29;20027;-75
2022/07/06 09:46:04;;;;;;;24.27;16.80;;;;;;;32.43;96.27;100871.41;4958882;28;20528;-75
2022/07/06 09:48:53;;;;;;;14.90;9.95;;;;;;;31.54;99.64;100875.34;4957094;29;20038;-75
2022/07/06 09:51:38;;;;;;;22.85;14.15;;;;;;;31.53;99.57;100878.22;4943283;29;20047;-76
2022/07/06 09:54:25;;;;;;;13.90;10.13;;;;;;;31.30;99.95;100878.69;4957816;28;20035;-74
2022/07/06 09:57:12;;;;;;;11.77;9.82;;;;;;;31.46;100.00;100869.84;4957861;29;20026;-76
2022/07/06 09:59:58;;;;;;;12.57;10.15;;;;;;;31.19;99.43;100870.75;4957684;28;20027;-74
2022/07/06 10:02:44;;;;;;;14.30;9.82;;;;;;;31.39;98.94;100866.09;4954656;28;20442;-73
2022/07/06 10:05:30;;;;;;;10.48;9.23;;;;;;;31.31;98.47;100866.03;4943983;28;20094;-74
2022/07/06 10:08:17;;;;;;;10.30;9.20;;;;;;;31.08;99.74;100859.31;4957896;28;20029;-75
2022/07/06 10:11:03;;;;;;;13.40;9.48;;;;;;;31.39;97.65;100856.09;4956397;29;20027;-73
2022/07/06 10:13:54;;;;;;;31.85;10.18;;;;;;;32.00;94.59;100844.38;4957690;28;20398;-74
2022/07/06 10:16:40;;;;;;;13.35;10.55;;;;;;;32.47;92.73;100845.66;4956903;29;20115;-73
2022/07/06 10:19:27;;;;;;;9.90;8.93;;;;;;;31.04;96.42;100849.81;4957443;29;20019;-73
2022/07/06 10:22:15;;;;;;;13.30;8.80;;;;;;;31.77;94.24;100854.06;4957780;28;20038;-72
2022/07/06 10:25:02;;;;;;;9.98;8.38;;;;;;;31.68;93.97;100845.00;4957167;28;20034;-73
2022/07/06 10:27:48;;;;;;;12.50;8.23;;;;;;;31.87;94.38;100843.97;4957503;28;20067;-73
2022/07/06 10:30:34;;;;;;;11.23;7.97;;;;;;;31.66;94.77;100851.56;4957154;28;20031;-73
2022/07/06 10:33:20;;;;;;;14.32;8.50;;;;;;;31.53;97.33;100840.31;4957507;28;20034;-74
2022/07/06 10:36:07;;;;;;;12.82;9.30;;;;;;;32.10;93.19;100834.28;4956965;28;20027;-73
2022/07/06 10:38:53;;;;;;;13.98;8.75;;;;;;;32.04;93.96;100856.59;4957135;29;20480;-71
2022/07/06 10:41:39;;;;;;;15.00;9.27;;;;;;;31.60;94.28;100841.34;4956970;28;20046;-73
2022/07/06 10:44:27;;;;;;;10.63;8.00;;;;;;;31.06;95.74;100848.66;4957421;28;20023;-73
2022/07/06 10:47:12;;;;;;;13.93;8.27;;;;;;;31.31;95.04;100847.06;4956561;29;20059;-73
2022/07/06 10:50:03;;;;;;;12.38;7.70;;;;;;;31.78;91.89;100853.06;4957034;28;20047;-71
2022/07/06 10:52:50;;;;;;;10.18;8.57;;;;;;;31.52;91.68;100844.00;4955831;29;20031;-73
2022/07/06 10:55:38;;;;;;;10.48;8.10;;;;;;;31.79;90.76;100843.91;4943127;29;20030;-72
2022/07/06 10:58:54;;;;;;;13.82;8.50;;;;;;;31.63;90.21;100846.47;4956326;29;20453;-75
2022/07/06 11:01:40;;;;;;;11.48;8.02;;;;;;;31.26;94.94;100839.38;4956591;29;20027;-73
2022/07/06 11:04:31;;;;;;;12.00;8.77;;;;;;;31.55;93.61;100833.72;4957061;28;20063;-73
2022/07/06 11:07:19;;;;;;;15.48;9.10;;;;;;;31.69;91.90;100838.53;4956155;29;20042;-73
2022/07/06 11:10:05;;;;;;;10.52;7.70;;;;;;;31.71;90.06;100838.41;4955800;29;20361;-73
2022/07/06 11:13:00;;;;;;;10.07;6.85;;;;;;;31.67;90.13;100834.31;4956956;28;20033;-72
2022/07/06 11:15:49;;;;;;;8.52;7.55;;;;;;;31.96;88.28;100822.16;4961372;28;20035;-72
2022/07/06 11:18:40;;;;;;;10.55;6.97;;;;;;;31.94;86.04;100826.88;4959698;28;20171;-73
2022/07/06 11:21:44;;;;;;;9.77;7.43;;;;;;;31.43;90.22;100827.69;4961126;28;20433;-73
2022/07/06 11:24:32;;;;;;;19.65;7.53;;;;;;;31.33;90.54;100829.66;4960538;28;20046;-73
2022/07/06 11:27:19;;;;;;;7.85;7.05;;;;;;;31.55;85.88;100819.31;4960123;28;20110;-72
2022/07/06 11:30:06;;;;;;;9.52;6.88;;;;;;;32.08;83.57;100807.31;4945835;29;20027;-73
2022/07/06 11:32:52;;;;;;;12.27;7.28;;;;;;;32.56;80.06;100812.13;4960664;28;20031;-73
2022/07/06 11:35:38;;;;;;;8.82;6.97;;;;;;;32.03;82.69;100812.38;4960450;28;20027;-73
2022/07/06 11:38:27;;;;;;;9.65;6.45;;;;;;;32.00;82.31;100817.25;4960055;29;20046;-73
2022/07/06 11:41:14;;;;;;;10.18;6.53;;;;;;;31.86;81.59;100807.03;4960384;28;20074;-73
2022/07/06 11:44:00;;;;;;;14.75;6.43;;;;;;;30.63;89.30;100797.09;4960161;28;20031;-73
2022/07/06 11:46:46;;;;;;;10.38;6.65;;;;;;;31.43;86.76;100806.00;4959893;29;20354;-73
2022/07/06 11:49:36;;;;;;;12.35;7.35;;;;;;;32.12;80.37;100789.72;4959472;29;20046;-73
2022/07/06 11:52:23;;;;;;;15.48;6.63;;;;;;;31.85;80.60;100802.63;4947060;29;20366;-72
2022/07/06 11:55:09;;;;;;;12.77;8.75;;;;;;;31.80;83.96;100794.09;4959405;28;20106;-74
2022/07/06 11:57:57;;;;;;;7.80;6.45;;;;;;;32.39;80.47;100786.81;4960265;28;20481;-74
2022/07/06 12:00:43;;;;;;;10.63;6.28;;;;;;;31.63;85.26;100787.72;4959632;28;20031;-74
2022/07/06 12:03:29;;;;;;;9.93;6.28;;;;;;;31.94;83.16;100783.50;4959941;28;20055;-74
2022/07/06 12:06:19;;;;;;;13.93;5.55;;;;;;;32.05;80.76;100787.78;4959215;29;20038;-73
2022/07/06 12:09:06;;;;;;;13.18;5.88;;;;;;;31.95;82.63;100781.66;4959353;29;20362;-74
2022/07/06 12:11:52;;;;;;;9.82;6.53;;;;;;;32.33;80.49;100779.31;4959798;28;20362;-75
2022/07/06 12:14:39;;;;;;;11.27;6.28;;;;;;;32.75;78.31;100781.97;4958594;29;20118;-75
2022/07/06 12:17:25;;;;;;;8.85;6.15;;;;;;;32.43;81.86;100779.19;4959412;28;20366;-74
2022/07/06 12:20:11;;;;;;;10.95;6.35;;;;;;;32.61;81.80;100780.75;4960197;28;20124;-75
2022/07/06 12:23:05;;;;;;;11.07;6.40;;;;;;;32.89;81.09;100778.63;4959783;29;20118;-75
2022/07/06 12:25:54;;;;;;;11.90;6.40;;;;;;;32.15;84.07;100775.84;4960082;28;20102;-75
2022/07/06 12:28:40;;;;;;;9.13;6.10;;;;;;;32.37;82.08;100774.41;4960202;28;20373;-74
2022/07/06 12:31:38;;;;;;;8.35;5.78;;;;;;;32.42;81.53;100770.19;4960404;28;20031;-74
2022/07/06 12:34:26;;;;;;;9.48;6.20;;;;;;;32.26;79.63;100763.84;4960610;29;20475;-76
2022/07/06 12:37:13;;;;;;;10.93;6.07;;;;;;;32.11;79.53;100760.91;4963621;28;20023;-75
2022/07/06 12:39:58;;;;;;;11.65;6.53;;;;;;;31.10;84.26;100765.28;4964781;29;20031;-75